createdAt,value
2018-07-05T00:02:34.191Z,18.22
2018-07-05T00:12:20.925Z,18.18
2018-07-05T00:22:16.726Z,17.94
2018-07-05T00:32:01.627Z,17.96
2018-07-05T00:41:44.157Z,17.85
2018-07-05T00:51:26.684Z,17.81
2018-07-05T01:01:09.143Z,17.70
2018-07-05T01:10:49.126Z,17.54
2018-07-05T01:20:31.505Z,17.54
2018-07-05T01:30:11.150Z,17.39
2018-07-05T01:39:56.565Z,17.25
2018-07-05T01:49:38.080Z,17.08
2018-07-05T01:59:31.522Z,17.03
2018-07-05T02:09:10.922Z,17.17
2018-07-05T02:18:51.892Z,17.11
2018-07-05T02:28:32.968Z,17.08
2018-07-05T02:38:17.420Z,16.98
2018-07-05T02:47:57.621Z,16.95
2018-07-05T02:57:43.169Z,16.93
2018-07-05T03:07:25.024Z,16.88
2018-07-05T03:17:07.840Z,16.93
2018-07-05T03:26:52.993Z,16.93
2018-07-05T03:36:34.480Z,16.82
2018-07-05T03:46:16.786Z,16.85
2018-07-05T03:56:11.813Z,16.85
2018-07-05T04:06:05.940Z,17.02
2018-07-05T04:15:46.783Z,16.85
2018-07-05T04:25:43.843Z,17.07
2018-07-05T04:35:43.480Z,17.35
2018-07-05T04:45:41.565Z,17.67
2018-07-05T04:55:39.748Z,17.88
2018-07-05T05:05:37.185Z,18.13
2018-07-05T05:15:30.880Z,18.43
2018-07-05T05:25:25.148Z,18.84
2018-07-05T05:35:23.326Z,19.06
2018-07-05T05:45:17.600Z,20.15
2018-07-05T05:55:15.844Z,20.15
2018-07-05T06:05:13.199Z,20.71
2018-07-05T06:15:11.747Z,21.30
2018-07-05T06:25:08.028Z,21.72
2018-07-05T06:35:04.105Z,21.97
2018-07-05T06:45:03.656Z,22.26
2018-07-05T06:55:01.822Z,22.54
2018-07-05T07:04:57.328Z,23.20
2018-07-05T07:14:56.815Z,23.64
2018-07-05T07:24:51.848Z,24.11
2018-07-05T07:34:51.228Z,24.29
2018-07-05T07:44:49.893Z,24.54
2018-07-05T07:54:47.292Z,24.93
2018-07-05T08:04:42.695Z,24.86
2018-07-05T08:14:39.226Z,25.32
2018-07-05T08:24:37.183Z,25.57
2018-07-05T08:34:32.977Z,25.77
2018-07-05T08:44:30.370Z,25.87
2018-07-05T08:54:27.899Z,26.20
2018-07-05T09:04:21.644Z,26.55
2018-07-05T09:14:21.013Z,26.60
2018-07-05T09:24:18.096Z,26.68
2018-07-05T09:34:13.030Z,26.83
2018-07-05T09:44:11.346Z,26.95
2018-07-05T09:54:09.928Z,27.14
2018-07-05T10:04:06.097Z,27.39
2018-07-05T10:14:03.108Z,27.34
2018-07-05T10:23:55.152Z,27.72
2018-07-05T10:33:50.802Z,28.01
2018-07-05T10:43:50.005Z,28.56
2018-07-05T10:53:45.108Z,28.56
2018-07-05T11:03:43.894Z,29.01
2018-07-05T11:13:40.030Z,29.71
2018-07-05T11:23:36.884Z,30.55
2018-07-05T11:33:17.935Z,30.27
2018-07-05T11:43:15.261Z,29.36
2018-07-05T11:53:11.815Z,31.12
2018-07-05T12:02:49.307Z,31.20
2018-07-05T12:12:47.299Z,32.20
2018-07-05T12:22:31.702Z,33.20
2018-07-05T12:32:05.986Z,33.56
2018-07-05T12:41:35.357Z,33.01
2018-07-05T12:51:18.286Z,33.86
2018-07-05T13:00:52.886Z,35.02
2018-07-05T13:10:26.682Z,35.66
2018-07-05T13:19:56.466Z,33.79
2018-07-05T13:29:31.966Z,33.13
2018-07-05T13:39:08.001Z,34.53
2018-07-05T13:48:49.142Z,34.83
2018-07-05T13:58:28.110Z,34.53
2018-07-05T14:08:05.025Z,31.04
2018-07-05T14:17:37.138Z,30.21
2018-07-05T14:27:30.719Z,29.07
2018-07-05T14:37:26.106Z,28.43
2018-07-05T14:47:22.177Z,28.43
2018-07-05T14:57:15.283Z,27.32
2018-07-05T15:07:11.625Z,26.02
2018-07-05T15:17:05.232Z,25.32
2018-07-05T15:27:01.443Z,25.47
2018-07-05T15:36:59.138Z,24.57
2018-07-05T15:46:51.029Z,24.04
2018-07-05T15:56:46.626Z,24.11
2018-07-05T16:06:43.370Z,23.23
2018-07-05T16:16:39.874Z,22.89
2018-07-05T16:26:30.918Z,21.78
2018-07-05T16:36:27.678Z,21.19
2018-07-05T16:46:20.492Z,20.83
2018-07-05T16:56:12.550Z,20.47
2018-07-05T17:06:09.493Z,20.05
2018-07-05T17:16:07.821Z,19.75
2018-07-05T17:25:48.136Z,19.48
2018-07-05T17:35:41.498Z,19.45
2018-07-05T17:45:38.843Z,19.42
2018-07-05T17:55:37.343Z,19.48
2018-07-05T18:05:34.194Z,19.23
2018-07-05T18:15:30.342Z,19.31
2018-07-05T18:25:23.758Z,19.23
2018-07-05T18:35:15.050Z,19.28
2018-07-05T18:45:09.940Z,19.28
2018-07-05T18:55:01.828Z,18.92
2018-07-05T19:04:58.245Z,18.98
2018-07-05T19:14:55.471Z,18.97
2018-07-05T19:24:51.855Z,18.98
2018-07-05T19:34:47.150Z,19.20
2018-07-05T19:44:42.315Z,19.25
2018-07-05T19:54:35.738Z,19.39
2018-07-05T20:04:31.791Z,19.01
2018-07-05T20:14:18.975Z,18.89
2018-07-05T20:24:03.993Z,18.84
2018-07-05T20:34:00.421Z,18.92
2018-07-05T20:43:57.315Z,18.76
2018-07-05T20:53:51.996Z,18.62
2018-07-05T21:03:50.124Z,18.47
2018-07-05T21:13:49.216Z,18.46
2018-07-05T21:23:45.087Z,18.53
2018-07-05T21:33:40.695Z,18.53
2018-07-05T21:43:38.145Z,18.32
2018-07-05T21:53:34.706Z,18.55
2018-07-05T22:03:30.289Z,18.65
2018-07-05T22:13:29.613Z,18.57
2018-07-05T22:23:27.972Z,18.42
2018-07-05T22:33:19.693Z,18.62
2018-07-05T22:43:16.387Z,18.52
2018-07-05T22:53:13.800Z,18.24
2018-07-05T23:03:07.384Z,18.19
2018-07-05T23:13:03.410Z,18.67
2018-07-05T23:23:02.072Z,18.55
2018-07-05T23:33:00.507Z,18.61
2018-07-05T23:42:57.050Z,18.68
2018-07-05T23:52:52.951Z,18.67
